sensor_id;sensor_type;location;lat;lon;timestamp;P1;durP1;ratioP1;P2;durP2;ratioP2
75864;SDS011;64510;46.704;38.274;2023-02-01T00:01:45;10.88;;;4.32;;
75864;SDS011;64510;46.704;38.274;2023-02-01T00:04:11;19.13;;;8.70;;
75864;SDS011;64510;46.704;38.274;2023-02-01T00:06:37;13.55;;;6.32;;
75864;SDS011;64510;46.704;38.274;2023-02-01T00:09:03;15.50;;;6.45;;
75864;SDS011;64510;46.704;38.274;2023-02-01T00:11:29;10.95;;;5.07;;
75864;SDS011;64510;46.704;38.274;2023-02-01T00:13:56;13.10;;;5.82;;
75864;SDS011;64510;46.704;38.274;2023-02-01T00:16:26;12.27;;;5.85;;
75864;SDS011;64510;46.704;38.274;2023-02-01T00:19:03;19.40;;;8.55;;
75864;SDS011;64510;46.704;38.274;2023-02-01T00:21:35;18.63;;;8.10;;
75864;SDS011;64510;46.704;38.274;2023-02-01T00:24:01;17.75;;;7.57;;
75864;SDS011;64510;46.704;38.274;2023-02-01T00:26:31;15.10;;;6.15;;
75864;SDS011;64510;46.704;38.274;2023-02-01T00:28:59;14.90;;;6.03;;
75864;SDS011;64510;46.704;38.274;2023-02-01T00:31:26;16.02;;;5.95;;
75864;SDS011;64510;46.704;38.274;2023-02-01T00:33:52;16.50;;;7.40;;
75864;SDS011;64510;46.704;38.274;2023-02-01T00:36:18;17.90;;;8.45;;
75864;SDS011;64510;46.704;38.274;2023-02-01T00:38:44;16.17;;;6.45;;
75864;SDS011;64510;46.704;38.274;2023-02-01T00:41:18;17.85;;;7.95;;
75864;SDS011;64510;46.704;38.274;2023-02-01T00:43:45;13.30;;;6.38;;
75864;SDS011;64510;46.704;38.274;2023-02-01T00:46:11;9.43;;;3.40;;
75864;SDS011;64510;46.704;38.274;2023-02-01T00:48:38;15.60;;;4.90;;
75864;SDS011;64510;46.704;38.274;2023-02-01T00:51:26;15.45;;;6.70;;
75864;SDS011;64510;46.704;38.274;2023-02-01T00:53:51;16.75;;;6.10;;
75864;SDS011;64510;46.704;38.274;2023-02-01T00:56:17;13.10;;;6.70;;
75864;SDS011;64510;46.704;38.274;2023-02-01T00:58:43;15.52;;;7.10;;
75864;SDS011;64510;46.704;38.274;2023-02-01T01:01:11;13.10;;;5.45;;
75864;SDS011;64510;46.704;38.274;2023-02-01T01:03:41;6.85;;;4.53;;
75864;SDS011;64510;46.704;38.274;2023-02-01T01:06:11;10.77;;;4.45;;
75864;SDS011;64510;46.704;38.274;2023-02-01T01:08:39;16.95;;;6.07;;
75864;SDS011;64510;46.704;38.274;2023-02-01T01:11:10;5.35;;;3.17;;
75864;SDS011;64510;46.704;38.274;2023-02-01T01:13:38;16.60;;;6.90;;
75864;SDS011;64510;46.704;38.274;2023-02-01T01:16:04;23.25;;;6.55;;
75864;SDS011;64510;46.704;38.274;2023-02-01T01:18:32;18.13;;;6.80;;
75864;SDS011;64510;46.704;38.274;2023-02-01T01:20:59;12.10;;;7.00;;
75864;SDS011;64510;46.704;38.274;2023-02-01T01:23:25;19.85;;;6.63;;
75864;SDS011;64510;46.704;38.274;2023-02-01T01:25:52;21.00;;;8.52;;
75864;SDS011;64510;46.704;38.274;2023-02-01T01:28:18;22.13;;;7.47;;
75864;SDS011;64510;46.704;38.274;2023-02-01T01:30:44;8.57;;;5.32;;
75864;SDS011;64510;46.704;38.274;2023-02-01T01:33:11;17.75;;;8.63;;
75864;SDS011;64510;46.704;38.274;2023-02-01T01:35:37;14.73;;;6.65;;
75864;SDS011;64510;46.704;38.274;2023-02-01T01:38:03;12.80;;;6.95;;
75864;SDS011;64510;46.704;38.274;2023-02-01T01:40:30;15.18;;;6.85;;
75864;SDS011;64510;46.704;38.274;2023-02-01T01:42:56;14.38;;;6.32;;
75864;SDS011;64510;46.704;38.274;2023-02-01T01:47:56;10.52;;;6.75;;
75864;SDS011;64510;46.704;38.274;2023-02-01T01:50:29;14.50;;;6.55;;
75864;SDS011;64510;46.704;38.274;2023-02-01T01:53:00;23.08;;;7.53;;
75864;SDS011;64510;46.704;38.274;2023-02-01T01:55:27;17.27;;;6.88;;
75864;SDS011;64510;46.704;38.274;2023-02-01T01:57:58;23.05;;;8.85;;
75864;SDS011;64510;46.704;38.274;2023-02-01T02:00:26;13.73;;;6.03;;
75864;SDS011;64510;46.704;38.274;2023-02-01T02:02:58;15.73;;;8.57;;
75864;SDS011;64510;46.704;38.274;2023-02-01T02:05:31;18.73;;;6.80;;
75864;SDS011;64510;46.704;38.274;2023-02-01T02:07:58;12.30;;;4.22;;
75864;SDS011;64510;46.704;38.274;2023-02-01T02:10:26;30.65;;;7.68;;
75864;SDS011;64510;46.704;38.274;2023-02-01T02:13:13;16.98;;;6.88;;
75864;SDS011;64510;46.704;38.274;2023-02-01T02:15:55;19.80;;;7.13;;
75864;SDS011;64510;46.704;38.274;2023-02-01T02:21:18;26.33;;;8.45;;
75864;SDS011;64510;46.704;38.274;2023-02-01T02:40:48;16.10;;;6.95;;
75864;SDS011;64510;46.704;38.274;2023-02-01T02:43:37;14.05;;;7.22;;
75864;SDS011;64510;46.704;38.274;2023-02-01T02:46:37;9.60;;;3.97;;
75864;SDS011;64510;46.704;38.274;2023-02-01T02:49:38;8.73;;;4.63;;
75864;SDS011;64510;46.704;38.274;2023-02-01T02:52:30;24.92;;;6.38;;
75864;SDS011;64510;46.704;38.274;2023-02-01T02:55:17;17.45;;;6.35;;
75864;SDS011;64510;46.704;38.274;2023-02-01T02:57:44;12.10;;;6.13;;
75864;SDS011;64510;46.704;38.274;2023-02-01T03:00:30;31.30;;;8.18;;
75864;SDS011;64510;46.704;38.274;2023-02-01T03:03:17;18.83;;;6.90;;
75864;SDS011;64510;46.704;38.274;2023-02-01T03:06:01;15.55;;;5.88;;
75864;SDS011;64510;46.704;38.274;2023-02-01T03:08:29;24.25;;;6.50;;
75864;SDS011;64510;46.704;38.274;2023-02-01T03:13:41;7.65;;;3.45;;
75864;SDS011;64510;46.704;38.274;2023-02-01T03:16:16;8.82;;;4.05;;
75864;SDS011;64510;46.704;38.274;2023-02-01T03:21:57;10.18;;;5.00;;
75864;SDS011;64510;46.704;38.274;2023-02-01T03:24:50;13.75;;;4.30;;
75864;SDS011;64510;46.704;38.274;2023-02-01T03:27:22;18.10;;;6.72;;
75864;SDS011;64510;46.704;38.274;2023-02-01T03:30:22;41.97;;;7.43;;
75864;SDS011;64510;46.704;38.274;2023-02-01T03:32:52;20.15;;;6.00;;
75864;SDS011;64510;46.704;38.274;2023-02-01T03:35:33;15.45;;;5.88;;
75864;SDS011;64510;46.704;38.274;2023-02-01T03:38:13;14.32;;;6.00;;
75864;SDS011;64510;46.704;38.274;2023-02-01T03:40:48;10.80;;;4.18;;
75864;SDS011;64510;46.704;38.274;2023-02-01T03:43:36;22.33;;;6.45;;
75864;SDS011;64510;46.704;38.274;2023-02-01T03:46:11;13.80;;;4.38;;
75864;SDS011;64510;46.704;38.274;2023-02-01T03:48:42;49.72;;;7.10;;
75864;SDS011;64510;46.704;38.274;2023-02-01T03:51:10;16.80;;;6.85;;
75864;SDS011;64510;46.704;38.274;2023-02-01T03:53:37;30.95;;;8.45;;
75864;SDS011;64510;46.704;38.274;2023-02-01T03:56:06;26.42;;;5.97;;
75864;SDS011;64510;46.704;38.274;2023-02-01T03:58:33;20.58;;;6.78;;
75864;SDS011;64510;46.704;38.274;2023-02-01T04:01:02;26.38;;;7.53;;
75864;SDS011;64510;46.704;38.274;2023-02-01T04:03:31;13.63;;;6.10;;
75864;SDS011;64510;46.704;38.274;2023-02-01T04:05:58;16.52;;;6.72;;
75864;SDS011;64510;46.704;38.274;2023-02-01T04:08:26;29.10;;;6.82;;
75864;SDS011;64510;46.704;38.274;2023-02-01T04:10:52;18.10;;;6.78;;
75864;SDS011;64510;46.704;38.274;2023-02-01T04:13:18;19.60;;;6.75;;
75864;SDS011;64510;46.704;38.274;2023-02-01T04:15:44;8.95;;;4.65;;
75864;SDS011;64510;46.704;38.274;2023-02-01T04:18:11;20.63;;;4.88;;
75864;SDS011;64510;46.704;38.274;2023-02-01T04:20:36;21.20;;;5.78;;
75864;SDS011;64510;46.704;38.274;2023-02-01T04:23:02;30.17;;;8.00;;
75864;SDS011;64510;46.704;38.274;2023-02-01T04:25:28;38.33;;;7.88;;
75864;SDS011;64510;46.704;38.274;2023-02-01T04:27:54;18.40;;;7.80;;
75864;SDS011;64510;46.704;38.274;2023-02-01T04:30:20;17.33;;;5.63;;
75864;SDS011;64510;46.704;38.274;2023-02-01T04:32:46;13.00;;;4.55;;
75864;SDS011;64510;46.704;38.274;2023-02-01T04:35:12;22.38;;;8.18;;
75864;SDS011;64510;46.704;38.274;2023-02-01T04:37:38;13.57;;;5.88;;
75864;SDS011;64510;46.704;38.274;2023-02-01T04:40:04;28.58;;;7.60;;
75864;SDS011;64510;46.704;38.274;2023-02-01T04:42:31;22.75;;;6.95;;
75864;SDS011;64510;46.704;38.274;2023-02-01T04:44:57;18.45;;;6.45;;
75864;SDS011;64510;46.704;38.274;2023-02-01T04:47:23;19.33;;;5.13;;
75864;SDS011;64510;46.704;38.274;2023-02-01T04:49:48;10.88;;;3.60;;
75864;SDS011;64510;46.704;38.274;2023-02-01T04:52:14;18.50;;;7.30;;
75864;SDS011;64510;46.704;38.274;2023-02-01T04:54:40;16.23;;;6.75;;
75864;SDS011;64510;46.704;38.274;2023-02-01T04:57:06;12.70;;;6.22;;
75864;SDS011;64510;46.704;38.274;2023-02-01T04:59:32;15.45;;;6.00;;
75864;SDS011;64510;46.704;38.274;2023-02-01T05:01:58;9.00;;;4.25;;
75864;SDS011;64510;46.704;38.274;2023-02-01T05:04:23;14.38;;;5.40;;
75864;SDS011;64510;46.704;38.274;2023-02-01T05:06:49;11.35;;;4.93;;
75864;SDS011;64510;46.704;38.274;2023-02-01T05:09:15;19.75;;;4.95;;
75864;SDS011;64510;46.704;38.274;2023-02-01T05:11:41;10.15;;;4.38;;
75864;SDS011;64510;46.704;38.274;2023-02-01T05:14:25;9.52;;;4.45;;
75864;SDS011;64510;46.704;38.274;2023-02-01T05:16:51;15.18;;;4.97;;
75864;SDS011;64510;46.704;38.274;2023-02-01T05:19:17;27.02;;;6.13;;
75864;SDS011;64510;46.704;38.274;2023-02-01T05:21:43;10.05;;;4.43;;
75864;SDS011;64510;46.704;38.274;2023-02-01T05:24:08;6.00;;;3.75;;
75864;SDS011;64510;46.704;38.274;2023-02-01T05:26:35;11.98;;;4.70;;
75864;SDS011;64510;46.704;38.274;2023-02-01T05:29:06;13.63;;;5.22;;
75864;SDS011;64510;46.704;38.274;2023-02-01T05:31:33;14.05;;;4.60;;
75864;SDS011;64510;46.704;38.274;2023-02-01T05:33:59;9.32;;;4.47;;
75864;SDS011;64510;46.704;38.274;2023-02-01T05:36:26;11.05;;;4.85;;
75864;SDS011;64510;46.704;38.274;2023-02-01T05:38:51;5.97;;;3.97;;
75864;SDS011;64510;46.704;38.274;2023-02-01T05:41:17;13.10;;;3.80;;
75864;SDS011;64510;46.704;38.274;2023-02-01T05:43:43;10.32;;;4.72;;
75864;SDS011;64510;46.704;38.274;2023-02-01T05:46:09;6.20;;;3.30;;
75864;SDS011;64510;46.704;38.274;2023-02-01T05:48:39;6.07;;;3.35;;
75864;SDS011;64510;46.704;38.274;2023-02-01T05:51:05;7.30;;;2.38;;
75864;SDS011;64510;46.704;38.274;2023-02-01T05:53:31;13.10;;;3.08;;
75864;SDS011;64510;46.704;38.274;2023-02-01T05:55:57;5.20;;;2.85;;
75864;SDS011;64510;46.704;38.274;2023-02-01T05:58:23;5.22;;;3.47;;
75864;SDS011;64510;46.704;38.274;2023-02-01T06:00:49;5.93;;;4.35;;
75864;SDS011;64510;46.704;38.274;2023-02-01T06:03:15;8.77;;;4.05;;
75864;SDS011;64510;46.704;38.274;2023-02-01T06:05:43;4.88;;;3.22;;
75864;SDS011;64510;46.704;38.274;2023-02-01T06:08:10;6.28;;;3.85;;
75864;SDS011;64510;46.704;38.274;2023-02-01T06:10:36;5.57;;;2.40;;
75864;SDS011;64510;46.704;38.274;2023-02-01T06:13:02;7.90;;;4.15;;
75864;SDS011;64510;46.704;38.274;2023-02-01T06:15:29;10.05;;;4.10;;
75864;SDS011;64510;46.704;38.274;2023-02-01T06:17:55;9.35;;;4.50;;
75864;SDS011;64510;46.704;38.274;2023-02-01T06:20:21;5.60;;;3.17;;
75864;SDS011;64510;46.704;38.274;2023-02-01T06:22:47;9.85;;;3.08;;
75864;SDS011;64510;46.704;38.274;2023-02-01T06:25:13;7.63;;;3.78;;
75864;SDS011;64510;46.704;38.274;2023-02-01T06:27:39;11.10;;;3.58;;
75864;SDS011;64510;46.704;38.274;2023-02-01T06:30:05;16.65;;;4.40;;
75864;SDS011;64510;46.704;38.274;2023-02-01T06:32:32;14.57;;;3.50;;
75864;SDS011;64510;46.704;38.274;2023-02-01T06:34:58;8.32;;;4.95;;
75864;SDS011;64510;46.704;38.274;2023-02-01T06:37:25;7.20;;;3.22;;
75864;SDS011;64510;46.704;38.274;2023-02-01T06:39:54;7.80;;;3.25;;
75864;SDS011;64510;46.704;38.274;2023-02-01T06:42:20;11.45;;;5.53;;
75864;SDS011;64510;46.704;38.274;2023-02-01T06:44:46;4.90;;;2.90;;
75864;SDS011;64510;46.704;38.274;2023-02-01T06:47:12;8.15;;;3.55;;
75864;SDS011;64510;46.704;38.274;2023-02-01T06:49:38;8.07;;;4.97;;
75864;SDS011;64510;46.704;38.274;2023-02-01T06:52:05;6.00;;;2.30;;
75864;SDS011;64510;46.704;38.274;2023-02-01T06:54:31;6.03;;;3.33;;
75864;SDS011;64510;46.704;38.274;2023-02-01T06:56:58;2.63;;;1.73;;
75864;SDS011;64510;46.704;38.274;2023-02-01T06:59:25;9.98;;;4.55;;
75864;SDS011;64510;46.704;38.274;2023-02-01T07:01:51;7.05;;;4.45;;
75864;SDS011;64510;46.704;38.274;2023-02-01T07:04:16;3.78;;;2.80;;
75864;SDS011;64510;46.704;38.274;2023-02-01T07:06:42;5.88;;;2.47;;
75864;SDS011;64510;46.704;38.274;2023-02-01T07:09:08;3.25;;;2.70;;
75864;SDS011;64510;46.704;38.274;2023-02-01T07:11:34;4.38;;;2.50;;
75864;SDS011;64510;46.704;38.274;2023-02-01T07:14:00;5.55;;;2.30;;
75864;SDS011;64510;46.704;38.274;2023-02-01T07:16:26;6.85;;;3.65;;
75864;SDS011;64510;46.704;38.274;2023-02-01T07:18:52;6.05;;;2.10;;
75864;SDS011;64510;46.704;38.274;2023-02-01T07:21:19;6.40;;;1.98;;
75864;SDS011;64510;46.704;38.274;2023-02-01T07:23:45;4.15;;;2.95;;
75864;SDS011;64510;46.704;38.274;2023-02-01T07:26:14;7.40;;;2.15;;
75864;SDS011;64510;46.704;38.274;2023-02-01T07:28:41;6.68;;;2.70;;
75864;SDS011;64510;46.704;38.274;2023-02-01T07:31:11;5.05;;;2.85;;
75864;SDS011;64510;46.704;38.274;2023-02-01T07:33:41;2.92;;;2.58;;
75864;SDS011;64510;46.704;38.274;2023-02-01T07:36:08;3.17;;;2.53;;
75864;SDS011;64510;46.704;38.274;2023-02-01T07:38:37;6.75;;;2.40;;
75864;SDS011;64510;46.704;38.274;2023-02-01T07:41:04;4.43;;;2.45;;
75864;SDS011;64510;46.704;38.274;2023-02-01T07:43:31;4.13;;;2.28;;
75864;SDS011;64510;46.704;38.274;2023-02-01T07:45:58;13.55;;;4.60;;
75864;SDS011;64510;46.704;38.274;2023-02-01T07:48:25;4.55;;;4.15;;
75864;SDS011;64510;46.704;38.274;2023-02-01T07:51:01;5.95;;;2.40;;
75864;SDS011;64510;46.704;38.274;2023-02-01T07:53:30;5.20;;;2.75;;
75864;SDS011;64510;46.704;38.274;2023-02-01T07:55:57;4.40;;;3.08;;
75864;SDS011;64510;46.704;38.274;2023-02-01T07:58:23;7.38;;;3.63;;
75864;SDS011;64510;46.704;38.274;2023-02-01T08:00:50;3.60;;;2.30;;
75864;SDS011;64510;46.704;38.274;2023-02-01T08:03:35;3.97;;;2.05;;
75864;SDS011;64510;46.704;38.274;2023-02-01T08:06:02;8.60;;;3.60;;
75864;SDS011;64510;46.704;38.274;2023-02-01T08:08:28;10.77;;;5.35;;
75864;SDS011;64510;46.704;38.274;2023-02-01T08:11:01;6.28;;;3.28;;
75864;SDS011;64510;46.704;38.274;2023-02-01T08:13:29;4.82;;;2.53;;
75864;SDS011;64510;46.704;38.274;2023-02-01T08:15:58;8.57;;;3.50;;
75864;SDS011;64510;46.704;38.274;2023-02-01T08:18:25;5.90;;;4.25;;
75864;SDS011;64510;46.704;38.274;2023-02-01T08:20:52;4.45;;;2.47;;
75864;SDS011;64510;46.704;38.274;2023-02-01T08:23:18;4.93;;;3.08;;
75864;SDS011;64510;46.704;38.274;2023-02-01T08:25:45;5.50;;;2.63;;
75864;SDS011;64510;46.704;38.274;2023-02-01T08:28:11;5.90;;;2.58;;
75864;SDS011;64510;46.704;38.274;2023-02-01T08:30:38;6.15;;;3.28;;
75864;SDS011;64510;46.704;38.274;2023-02-01T08:33:04;4.82;;;2.50;;
75864;SDS011;64510;46.704;38.274;2023-02-01T08:35:34;5.43;;;3.72;;
75864;SDS011;64510;46.704;38.274;2023-02-01T08:38:01;8.38;;;4.00;;
75864;SDS011;64510;46.704;38.274;2023-02-01T08:40:27;5.88;;;3.55;;
75864;SDS011;64510;46.704;38.274;2023-02-01T08:42:54;5.00;;;3.15;;
75864;SDS011;64510;46.704;38.274;2023-02-01T08:45:27;9.80;;;3.95;;
75864;SDS011;64510;46.704;38.274;2023-02-01T08:47:57;4.22;;;3.05;;
75864;SDS011;64510;46.704;38.274;2023-02-01T08:50:23;5.68;;;3.45;;
75864;SDS011;64510;46.704;38.274;2023-02-01T08:52:49;5.95;;;2.85;;
75864;SDS011;64510;46.704;38.274;2023-02-01T08:55:15;5.15;;;2.88;;
75864;SDS011;64510;46.704;38.274;2023-02-01T08:57:42;8.02;;;2.75;;
75864;SDS011;64510;46.704;38.274;2023-02-01T09:00:09;4.28;;;2.88;;
75864;SDS011;64510;46.704;38.274;2023-02-01T09:02:37;4.23;;;2.80;;
75864;SDS011;64510;46.704;38.274;2023-02-01T09:05:04;4.22;;;2.53;;
75864;SDS011;64510;46.704;38.274;2023-02-01T09:07:30;6.00;;;2.88;;
75864;SDS011;64510;46.704;38.274;2023-02-01T09:09:57;7.47;;;3.88;;
75864;SDS011;64510;46.704;38.274;2023-02-01T09:12:29;5.72;;;2.78;;
75864;SDS011;64510;46.704;38.274;2023-02-01T09:14:56;4.85;;;2.45;;
75864;SDS011;64510;46.704;38.274;2023-02-01T09:17:27;4.75;;;3.03;;
75864;SDS011;64510;46.704;38.274;2023-02-01T09:19:54;5.82;;;4.70;;
75864;SDS011;64510;46.704;38.274;2023-02-01T09:22:20;6.78;;;3.33;;
75864;SDS011;64510;46.704;38.274;2023-02-01T09:24:46;7.07;;;3.88;;
75864;SDS011;64510;46.704;38.274;2023-02-01T09:27:12;7.97;;;4.05;;
75864;SDS011;64510;46.704;38.274;2023-02-01T09:29:37;8.30;;;4.32;;
75864;SDS011;64510;46.704;38.274;2023-02-01T09:32:03;6.15;;;3.22;;
75864;SDS011;64510;46.704;38.274;2023-02-01T09:34:31;7.28;;;4.07;;
75864;SDS011;64510;46.704;38.274;2023-02-01T09:36:58;7.43;;;4.57;;
75864;SDS011;64510;46.704;38.274;2023-02-01T09:39:24;5.13;;;3.78;;
75864;SDS011;64510;46.704;38.274;2023-02-01T09:42:03;4.25;;;2.88;;
75864;SDS011;64510;46.704;38.274;2023-02-01T09:47:34;5.32;;;3.08;;
75864;SDS011;64510;46.704;38.274;2023-02-01T09:52:29;4.22;;;3.45;;
75864;SDS011;64510;46.704;38.274;2023-02-01T09:55:07;4.47;;;2.72;;
75864;SDS011;64510;46.704;38.274;2023-02-01T09:57:46;7.50;;;4.18;;
75864;SDS011;64510;46.704;38.274;2023-02-01T10:00:20;5.53;;;3.60;;
75864;SDS011;64510;46.704;38.274;2023-02-01T10:02:51;10.38;;;3.30;;
75864;SDS011;64510;46.704;38.274;2023-02-01T10:05:22;4.25;;;3.20;;
75864;SDS011;64510;46.704;38.274;2023-02-01T10:09:15;5.68;;;3.58;;
75864;SDS011;64510;46.704;38.274;2023-02-01T10:11:39;7.63;;;3.78;;
75864;SDS011;64510;46.704;38.274;2023-02-01T10:20:18;4.97;;;3.20;;
75864;SDS011;64510;46.704;38.274;2023-02-01T10:26:12;5.15;;;3.78;;
75864;SDS011;64510;46.704;38.274;2023-02-01T10:28:50;6.22;;;4.03;;
75864;SDS011;64510;46.704;38.274;2023-02-01T10:31:22;7.15;;;3.70;;
75864;SDS011;64510;46.704;38.274;2023-02-01T10:33:58;8.48;;;4.00;;
75864;SDS011;64510;46.704;38.274;2023-02-01T10:36:31;7.60;;;4.03;;
75864;SDS011;64510;46.704;38.274;2023-02-01T10:39:04;7.93;;;4.20;;
75864;SDS011;64510;46.704;38.274;2023-02-01T10:41:35;6.15;;;3.95;;
75864;SDS011;64510;46.704;38.274;2023-02-01T10:44:07;5.70;;;3.72;;
75864;SDS011;64510;46.704;38.274;2023-02-01T10:46:37;5.03;;;3.78;;
75864;SDS011;64510;46.704;38.274;2023-02-01T10:49:04;7.32;;;3.28;;
75864;SDS011;64510;46.704;38.274;2023-02-01T10:51:51;6.40;;;3.47;;
75864;SDS011;64510;46.704;38.274;2023-02-01T10:54:33;6.60;;;3.97;;
75864;SDS011;64510;46.704;38.274;2023-02-01T10:57:07;5.60;;;3.28;;
75864;SDS011;64510;46.704;38.274;2023-02-01T10:59:44;4.07;;;2.65;;
75864;SDS011;64510;46.704;38.274;2023-02-01T11:02:21;6.60;;;3.08;;
75864;SDS011;64510;46.704;38.274;2023-02-01T11:05:07;7.10;;;3.65;;
75864;SDS011;64510;46.704;38.274;2023-02-01T11:07:35;7.53;;;3.88;;
75864;SDS011;64510;46.704;38.274;2023-02-01T11:10:03;8.57;;;3.42;;
75864;SDS011;64510;46.704;38.274;2023-02-01T11:12:31;6.85;;;3.25;;
75864;SDS011;64510;46.704;38.274;2023-02-01T11:15:11;5.60;;;4.03;;
75864;SDS011;64510;46.704;38.274;2023-02-01T11:17:46;5.80;;;3.83;;
75864;SDS011;64510;46.704;38.274;2023-02-01T11:20:17;6.18;;;3.65;;
75864;SDS011;64510;46.704;38.274;2023-02-01T11:22:45;6.18;;;2.90;;
75864;SDS011;64510;46.704;38.274;2023-02-01T11:25:14;6.80;;;4.15;;
75864;SDS011;64510;46.704;38.274;2023-02-01T11:27:42;4.07;;;2.17;;
75864;SDS011;64510;46.704;38.274;2023-02-01T11:30:16;7.63;;;3.80;;
75864;SDS011;64510;46.704;38.274;2023-02-01T11:32:46;4.68;;;3.25;;
75864;SDS011;64510;46.704;38.274;2023-02-01T11:35:15;6.05;;;2.65;;
75864;SDS011;64510;46.704;38.274;2023-02-01T11:37:48;9.32;;;3.47;;
75864;SDS011;64510;46.704;38.274;2023-02-01T11:43:34;5.85;;;4.00;;
75864;SDS011;64510;46.704;38.274;2023-02-01T11:48:19;7.50;;;3.20;;
75864;SDS011;64510;46.704;38.274;2023-02-01T11:51:07;5.78;;;3.22;;
75864;SDS011;64510;46.704;38.274;2023-02-01T12:01:55;6.90;;;3.78;;
75864;SDS011;64510;46.704;38.274;2023-02-01T12:04:52;10.48;;;3.45;;
75864;SDS011;64510;46.704;38.274;2023-02-01T12:10:13;5.80;;;2.95;;
75864;SDS011;64510;46.704;38.274;2023-02-01T12:20:56;10.38;;;4.63;;
75864;SDS011;64510;46.704;38.274;2023-02-01T12:37:45;12.27;;;5.33;;
75864;SDS011;64510;46.704;38.274;2023-02-01T12:43:13;11.90;;;5.78;;
75864;SDS011;64510;46.704;38.274;2023-02-01T12:45:56;14.52;;;6.47;;
75864;SDS011;64510;46.704;38.274;2023-02-01T12:48:37;19.55;;;6.90;;
75864;SDS011;64510;46.704;38.274;2023-02-01T12:51:20;16.88;;;8.23;;
75864;SDS011;64510;46.704;38.274;2023-02-01T12:58:55;8.63;;;4.93;;
75864;SDS011;64510;46.704;38.274;2023-02-01T13:09:20;12.43;;;5.28;;
75864;SDS011;64510;46.704;38.274;2023-02-01T13:11:48;11.98;;;6.03;;
75864;SDS011;64510;46.704;38.274;2023-02-01T13:16:44;10.27;;;5.65;;
75864;SDS011;64510;46.704;38.274;2023-02-01T13:20:15;11.30;;;5.63;;
75864;SDS011;64510;46.704;38.274;2023-02-01T13:22:13;9.82;;;5.43;;
75864;SDS011;64510;46.704;38.274;2023-02-01T13:24:49;12.38;;;5.93;;
75864;SDS011;64510;46.704;38.274;2023-02-01T13:27:18;12.75;;;5.25;;
75864;SDS011;64510;46.704;38.274;2023-02-01T13:29:55;11.05;;;5.82;;
75864;SDS011;64510;46.704;38.274;2023-02-01T13:32:37;8.82;;;5.90;;
75864;SDS011;64510;46.704;38.274;2023-02-01T13:35:23;9.75;;;6.03;;
75864;SDS011;64510;46.704;38.274;2023-02-01T13:45:43;19.52;;;8.45;;
75864;SDS011;64510;46.704;38.274;2023-02-01T13:48:20;13.00;;;5.95;;
75864;SDS011;64510;46.704;38.274;2023-02-01T13:50:54;8.45;;;5.45;;
75864;SDS011;64510;46.704;38.274;2023-02-01T13:53:24;16.05;;;7.75;;
75864;SDS011;64510;46.704;38.274;2023-02-01T13:56:00;16.40;;;8.63;;
75864;SDS011;64510;46.704;38.274;2023-02-01T14:03:49;14.70;;;8.48;;
75864;SDS011;64510;46.704;38.274;2023-02-01T14:11:47;13.90;;;6.68;;
75864;SDS011;64510;46.704;38.274;2023-02-01T14:19:27;15.10;;;6.60;;
75864;SDS011;64510;46.704;38.274;2023-02-01T14:21:59;13.35;;;6.72;;
75864;SDS011;64510;46.704;38.274;2023-02-01T14:24:33;11.50;;;5.63;;
75864;SDS011;64510;46.704;38.274;2023-02-01T14:27:01;13.57;;;5.90;;
75864;SDS011;64510;46.704;38.274;2023-02-01T14:32:15;15.35;;;5.72;;
75864;SDS011;64510;46.704;38.274;2023-02-01T14:55:44;17.80;;;7.53;;
75864;SDS011;64510;46.704;38.274;2023-02-01T14:58:32;20.87;;;6.77;;
75864;SDS011;64510;46.704;38.274;2023-02-01T15:01:22;9.20;;;5.93;;
75864;SDS011;64510;46.704;38.274;2023-02-01T15:04:08;17.27;;;7.00;;
75864;SDS011;64510;46.704;38.274;2023-02-01T15:09:10;11.63;;;6.15;;
75864;SDS011;64510;46.704;38.274;2023-02-01T15:14:31;15.38;;;7.38;;
75864;SDS011;64510;46.704;38.274;2023-02-01T15:17:03;10.18;;;6.00;;
75864;SDS011;64510;46.704;38.274;2023-02-01T15:22:25;10.77;;;6.40;;
75864;SDS011;64510;46.704;38.274;2023-02-01T15:25:02;15.90;;;6.95;;
75864;SDS011;64510;46.704;38.274;2023-02-01T15:27:29;12.63;;;6.22;;
75864;SDS011;64510;46.704;38.274;2023-02-01T15:30:06;21.15;;;9.43;;
75864;SDS011;64510;46.704;38.274;2023-02-01T15:32:58;10.40;;;5.22;;
75864;SDS011;64510;46.704;38.274;2023-02-01T15:35:39;13.93;;;5.97;;
75864;SDS011;64510;46.704;38.274;2023-02-01T15:46:40;14.25;;;6.30;;
75864;SDS011;64510;46.704;38.274;2023-02-01T15:49:16;8.65;;;5.28;;
75864;SDS011;64510;46.704;38.274;2023-02-01T15:51:45;11.57;;;5.38;;
75864;SDS011;64510;46.704;38.274;2023-02-01T15:54:14;12.07;;;5.03;;
75864;SDS011;64510;46.704;38.274;2023-02-01T15:56:49;14.18;;;6.57;;
75864;SDS011;64510;46.704;38.274;2023-02-01T15:59:24;11.07;;;5.47;;
75864;SDS011;64510;46.704;38.274;2023-02-01T16:01:56;12.93;;;5.30;;
75864;SDS011;64510;46.704;38.274;2023-02-01T16:04:23;11.38;;;5.03;;
75864;SDS011;64510;46.704;38.274;2023-02-01T16:06:59;13.98;;;6.47;;
75864;SDS011;64510;46.704;38.274;2023-02-01T16:09:39;11.13;;;5.53;;
75864;SDS011;64510;46.704;38.274;2023-02-01T16:14:56;14.07;;;6.53;;
75864;SDS011;64510;46.704;38.274;2023-02-01T16:17:22;12.77;;;4.38;;
75864;SDS011;64510;46.704;38.274;2023-02-01T16:19:48;17.08;;;5.65;;
75864;SDS011;64510;46.704;38.274;2023-02-01T16:22:15;14.15;;;6.18;;
75864;SDS011;64510;46.704;38.274;2023-02-01T16:24:41;9.98;;;4.97;;
75864;SDS011;64510;46.704;38.274;2023-02-01T16:27:06;18.23;;;7.53;;
75864;SDS011;64510;46.704;38.274;2023-02-01T16:29:33;12.98;;;7.75;;
75864;SDS011;64510;46.704;38.274;2023-02-01T16:31:59;12.05;;;6.03;;
75864;SDS011;64510;46.704;38.274;2023-02-01T16:34:25;14.23;;;6.15;;
75864;SDS011;64510;46.704;38.274;2023-02-01T16:36:51;16.85;;;6.07;;
75864;SDS011;64510;46.704;38.274;2023-02-01T16:39:21;15.43;;;7.00;;
75864;SDS011;64510;46.704;38.274;2023-02-01T16:41:47;14.85;;;7.32;;
75864;SDS011;64510;46.704;38.274;2023-02-01T16:44:13;17.13;;;6.85;;
75864;SDS011;64510;46.704;38.274;2023-02-01T16:46:40;11.82;;;6.53;;
75864;SDS011;64510;46.704;38.274;2023-02-01T16:49:19;17.25;;;9.27;;
75864;SDS011;64510;46.704;38.274;2023-02-01T16:51:48;17.38;;;6.63;;
75864;SDS011;64510;46.704;38.274;2023-02-01T16:54:16;12.27;;;6.35;;
75864;SDS011;64510;46.704;38.274;2023-02-01T16:56:42;18.45;;;7.88;;
75864;SDS011;64510;46.704;38.274;2023-02-01T16:59:09;16.10;;;7.30;;
75864;SDS011;64510;46.704;38.274;2023-02-01T17:01:35;18.55;;;7.75;;
75864;SDS011;64510;46.704;38.274;2023-02-01T17:04:03;18.50;;;7.50;;
75864;SDS011;64510;46.704;38.274;2023-02-01T17:06:29;15.93;;;7.97;;
75864;SDS011;64510;46.704;38.274;2023-02-01T17:08:58;20.67;;;8.52;;
75864;SDS011;64510;46.704;38.274;2023-02-01T17:11:25;13.40;;;6.93;;
75864;SDS011;64510;46.704;38.274;2023-02-01T17:13:52;10.98;;;6.15;;
75864;SDS011;64510;46.704;38.274;2023-02-01T17:18:57;18.15;;;8.02;;
75864;SDS011;64510;46.704;38.274;2023-02-01T17:21:26;13.07;;;6.93;;
75864;SDS011;64510;46.704;38.274;2023-02-01T17:23:54;16.08;;;7.63;;
75864;SDS011;64510;46.704;38.274;2023-02-01T17:26:21;17.55;;;6.40;;
75864;SDS011;64510;46.704;38.274;2023-02-01T17:28:46;17.50;;;8.65;;
75864;SDS011;64510;46.704;38.274;2023-02-01T17:31:13;13.63;;;7.25;;
75864;SDS011;64510;46.704;38.274;2023-02-01T17:33:40;14.25;;;6.95;;
75864;SDS011;64510;46.704;38.274;2023-02-01T17:36:11;15.48;;;8.50;;